Carrboro, North Carolina
Current Conditions -  °F | °C
As of 7:56 PM on Friday 24 Oct 2014 (Local Time) from KIGX Reporting Station
Clear Clear  
Wind Chill: 12°   Ceiling: Unl
Heat Index: 12°   Visibility: 10mi
Dew Point:   Wind: 3mph
Humidity: 75%   Direction: 280°W
Pressure: 29.98"   Gusts: NA
Location:  35.91°N, 79.08°W
Report Text: KIGX 242356Z AUTO 28003KT 10SM CLR 12/08 A2998 RMK AO2 SLP151 T01220078 10222 20122 51005
Loading
Personal Weather Stations






























Interactive Weather Map
Tropical Storm Tracking
New forecast layout! Learn more

10-Day Weather Forecast

Advertisements
Track Severe Weather on mobile